Time,TemperatureF,DewpointF,PressureIn,WindDirection,WindDirectionDegrees,WindSpeedMPH,WindSpeedGustMPH,Humidity,HourlyPrecipIn,Conditions,Clouds,dailyrainin,SolarRadiationWatts/m^2,SoftwareType,DateUTC
2013-10-25 00:00:00,31.4,24.4,30.16,WNW,300,0.0,0.0,75,0.00,,,0.00,0,Wunderground v.1.15,2013-10-25 06:00:00,
2013-10-25 00:20:00,31.6,24.6,30.16,WNW,300,0.0,0.0,75,0.00,,,0.00,0,Wunderground v.1.15,2013-10-25 06:20:00,
2013-10-25 00:30:00,31.2,24.2,30.16,WNW,300,0.0,0.0,75,0.00,,,0.00,0,Wunderground v.1.15,2013-10-25 06:30:00,
2013-10-25 01:00:00,31.0,23.4,30.16,West,281,0.0,0.0,73,0.00,,,0.00,0,Wunderground v.1.15,2013-10-25 07:00:00,
2013-10-25 01:20:00,32.1,23.1,30.16,South,171,2.0,2.0,69,0.00,,,0.00,0,Wunderground v.1.15,2013-10-25 07:20:00,
2013-10-25 01:30:00,32.8,23.4,30.17,SW,215,2.0,2.0,68,0.00,,,0.00,0,Wunderground v.1.15,2013-10-25 07:30:00,
2013-10-25 01:50:00,32.9,23.1,30.17,West,272,1.0,1.0,67,0.00,,,0.00,0,Wunderground v.1.15,2013-10-25 07:50:00,
2013-10-25 02:00:00,32.5,22.8,30.17,West,272,1.0,1.0,67,0.00,,,0.00,0,Wunderground v.1.15,2013-10-25 08:00:00,
2013-10-25 02:20:00,33.6,23.1,30.17,West,260,2.0,2.0,65,0.00,,,0.00,0,Wunderground v.1.15,2013-10-25 08:20:00,
2013-10-25 02:30:00,34.1,23.2,30.17,SW,236,0.0,3.0,64,0.00,,,0.00,0,Wunderground v.1.15,2013-10-25 08:30:00,
2013-10-25 02:50:00,33.8,22.5,30.17,SW,236,1.0,1.0,63,0.00,,,0.00,0,Wunderground v.1.15,2013-10-25 08:50:00,
2013-10-25 03:00:00,34.4,23.1,30.17,West,275,0.0,0.0,63,0.00,,,0.00,0,Wunderground v.1.15,2013-10-25 09:00:00,
2013-10-25 03:20:00,34.0,23.5,30.17,NW,304,1.0,1.0,65,0.00,,,0.00,0,Wunderground v.1.15,2013-10-25 09:20:00,
2013-10-25 03:50:00,33.1,21.9,30.17,SSE,167,0.0,0.0,63,0.00,,,0.00,0,Wunderground v.1.15,2013-10-25 09:50:00,
2013-10-25 04:00:00,33.0,22.1,30.17,South,177,1.0,1.0,64,0.00,,,0.00,0,Wunderground v.1.15,2013-10-25 10:00:00,
2013-10-25 04:20:00,33.3,22.1,30.17,SSW,213,0.0,0.0,63,0.00,,,0.00,0,Wunderground v.1.15,2013-10-25 10:20:00,
2013-10-25 04:30:00,33.9,22.2,30.17,West,279,1.0,1.0,62,0.00,,,0.00,0,Wunderground v.1.15,2013-10-25 10:30:00,
2013-10-25 04:40:00,33.5,21.5,30.17,ESE,109,1.0,8.0,61,0.00,,,0.00,0,Wunderground v.1.15,2013-10-25 10:40:00,
2013-10-25 05:00:00,33.4,21.4,30.17,ENE,71,1.0,1.0,61,0.00,,,0.00,0,Wunderground v.1.15,2013-10-25 11:00:00,
2013-10-25 05:10:00,33.0,22.1,30.17,ENE,74,1.0,5.0,64,0.00,,,0.00,0,Wunderground v.1.15,2013-10-25 11:10:00,
2013-10-25 05:30:00,33.0,21.8,30.17,SE,142,1.0,1.0,63,0.00,,,0.00,0,Wunderground v.1.15,2013-10-25 11:30:00,
2013-10-25 05:40:00,32.9,21.7,30.18,ESE,121,1.0,1.0,63,0.00,,,0.00,0,Wunderground v.1.15,2013-10-25 11:40:00,
2013-10-25 05:50:00,33.5,22.2,30.18,West,280,1.0,1.0,63,0.00,,,0.00,0,Wunderground v.1.15,2013-10-25 11:50:00,
2013-10-25 06:10:00,35.8,22.5,30.18,SW,229,0.0,0.0,58,0.00,,,0.00,0,Wunderground v.1.15,2013-10-25 12:10:00,
2013-10-25 06:20:00,36.2,22.0,30.18,West,273,0.0,0.0,56,0.00,,,0.00,0,Wunderground v.1.15,2013-10-25 12:20:00,
2013-10-25 06:40:00,36.2,22.0,30.18,WSW,254,0.0,2.0,56,0.00,,,0.00,0,Wunderground v.1.15,2013-10-25 12:40:00,
2013-10-25 06:50:00,38.9,23.2,30.17,WSW,252,7.0,8.0,53,0.00,,,0.00,0,Wunderground v.1.15,2013-10-25 12:50:00,
2013-10-25 07:00:00,40.5,23.3,30.17,WSW,250,9.0,9.0,50,0.00,,,0.00,0,Wunderground v.1.15,2013-10-25 13:00:00,
2013-10-25 07:20:00,40.3,22.6,30.17,West,273,6.0,11.0,49,0.00,,,0.00,0,Wunderground v.1.15,2013-10-25 13:20:00,
2013-10-25 07:30:00,40.5,22.8,30.16,SW,236,6.0,6.0,49,0.00,,,0.00,5,Wunderground v.1.15,2013-10-25 13:30:00,
2013-10-25 08:00:00,41.8,23.0,30.16,WSW,241,11.0,12.0,47,0.00,,,0.00,35,Wunderground v.1.15,2013-10-25 14:00:00,
2013-10-25 08:20:00,44.0,23.5,30.16,WNW,296,1.0,2.0,44,0.00,,,0.00,95,Wunderground v.1.15,2013-10-25 14:20:00,
2013-10-25 08:30:00,44.8,23.1,30.16,WSW,241,5.0,5.0,42,0.00,,,0.00,137,Wunderground v.1.15,2013-10-25 14:30:00,
2013-10-25 08:50:00,46.5,24.6,30.16,NW,309,3.0,3.0,42,0.00,,,0.00,214,Wunderground v.1.15,2013-10-25 14:50:00,
2013-10-25 09:00:00,47.3,27.5,30.16,SE,137,1.0,4.0,46,0.00,,,0.00,255,Wunderground v.1.15,2013-10-25 15:00:00,
2013-10-25 09:11:00,46.6,25.8,30.16,SSE,164,5.0,6.0,44,0.00,,,0.00,294,Wunderground v.1.15,2013-10-25 15:11:00,
2013-10-25 09:30:00,48.3,27.9,30.15,SSE,157,4.0,4.0,45,0.00,,,0.00,355,Wunderground v.1.15,2013-10-25 15:30:00,
2013-10-25 09:50:00,51.1,27.0,30.15,SE,134,1.0,5.0,39,0.00,,,0.00,410,Wunderground v.1.15,2013-10-25 15:50:00,
2013-10-25 10:20:00,54.9,26.3,30.14,NNE,26,2.0,2.0,33,0.00,,,0.00,487,Wunderground v.1.15,2013-10-25 16:20:00,
2013-10-25 10:30:00,56.5,26.2,30.13,SW,232,3.0,4.0,31,0.00,,,0.00,508,Wunderground v.1.15,2013-10-25 16:30:00,
2013-10-25 11:00:00,56.4,21.9,30.12,NNW,347,6.0,6.0,26,0.00,,,0.00,570,Wunderground v.1.15,2013-10-25 17:00:00,
2013-10-25 11:10:00,56.7,22.2,30.11,North,5,9.0,9.0,26,0.00,,,0.00,585,Wunderground v.1.15,2013-10-25 17:10:00,
2013-10-25 11:20:00,57.2,23.5,30.11,North,360,6.0,11.0,27,0.00,,,0.00,598,Wunderground v.1.15,2013-10-25 17:20:00,
2013-10-25 11:30:00,57.2,21.6,30.12,NW,315,10.0,11.0,25,0.00,,,0.00,612,Wunderground v.1.15,2013-10-25 17:30:00,
2013-10-25 11:40:00,57.3,21.7,30.11,NW,324,11.0,17.0,25,0.00,,,0.00,624,Wunderground v.1.15,2013-10-25 17:40:00,
2013-10-25 12:00:00,57.6,22.0,30.11,WNW,285,9.0,9.0,25,0.00,,,0.00,643,Wunderground v.1.15,2013-10-25 18:00:00,
2013-10-25 12:10:00,56.8,21.3,30.11,WNW,292,11.0,14.0,25,0.00,,,0.00,652,Wunderground v.1.15,2013-10-25 18:10:00,
2013-10-25 12:20:00,57.7,23.0,30.11,NNE,14,7.0,10.0,26,0.00,,,0.00,656,Wunderground v.1.15,2013-10-25 18:20:00,
2013-10-25 12:40:00,58.6,23.8,30.10,North,360,11.0,11.0,26,0.00,,,0.00,661,Wunderground v.1.15,2013-10-25 18:40:00,
2013-10-25 12:50:00,59.9,23.0,30.10,NW,325,10.0,11.0,24,0.00,,,0.00,661,Wunderground v.1.15,2013-10-25 18:50:00,
2013-10-25 13:20:00,58.7,23.9,30.09,North,355,11.0,11.0,26,0.00,,,0.00,606,Wunderground v.1.15,2013-10-25 19:20:00,
2013-10-25 13:30:00,58.6,23.8,30.09,North,9,10.0,10.0,26,0.00,,,0.00,638,Wunderground v.1.15,2013-10-25 19:30:00,
2013-10-25 13:50:00,58.0,24.2,30.08,NW,325,10.0,11.0,27,0.00,,,0.00,227,Wunderground v.1.15,2013-10-25 19:50:00,
2013-10-25 14:00:00,57.7,23.9,30.08,WNW,292,11.0,11.0,27,0.00,,,0.00,323,Wunderground v.1.15,2013-10-25 20:00:00,
2013-10-25 14:10:00,57.2,23.5,30.08,NW,321,10.0,10.0,27,0.00,,,0.00,559,Wunderground v.1.15,2013-10-25 20:10:00,
2013-10-25 14:20:00,56.9,23.2,30.08,West,271,12.0,15.0,27,0.00,,,0.00,56,Wunderground v.1.15,2013-10-25 20:20:00,
2013-10-25 14:30:00,56.8,24.0,30.08,WNW,303,9.0,9.0,28,0.00,,,0.00,118,Wunderground v.1.15,2013-10-25 20:30:00,
2013-10-25 14:40:00,57.4,24.5,30.08,NW,306,10.0,11.0,28,0.00,,,0.00,545,Wunderground v.1.15,2013-10-25 20:40:00,
2013-10-25 15:00:00,57.9,25.0,30.08,NW,310,7.0,8.0,28,0.00,,,0.00,396,Wunderground v.1.15,2013-10-25 21:00:00,
2013-10-25 15:10:00,58.4,24.5,30.08,NW,318,9.0,9.0,27,0.00,,,0.00,410,Wunderground v.1.15,2013-10-25 21:10:00,
2013-10-25 15:21:00,57.1,24.3,30.08,NW,326,10.0,10.0,28,0.00,,,0.00,158,Wunderground v.1.15,2013-10-25 21:21:00,
2013-10-25 15:40:00,56.6,24.7,30.08,NNW,327,9.0,9.0,29,0.00,,,0.00,323,Wunderground v.1.15,2013-10-25 21:40:00,
2013-10-25 15:50:00,56.6,24.7,30.08,NW,313,9.0,9.0,29,0.00,,,0.00,255,Wunderground v.1.15,2013-10-25 21:50:00,
2013-10-25 16:10:00,56.2,25.1,30.08,WNW,299,9.0,9.0,30,0.00,,,0.00,169,Wunderground v.1.15,2013-10-25 22:10:00,
2013-10-25 16:20:00,55.6,23.8,30.09,NW,304,10.0,10.0,29,0.00,,,0.00,118,Wunderground v.1.15,2013-10-25 22:20:00,
2013-10-25 16:31:00,55.6,24.6,30.09,NW,325,7.0,10.0,30,0.00,,,0.00,107,Wunderground v.1.15,2013-10-25 22:31:00,
2013-10-25 16:50:00,52.1,22.3,30.09,WNW,298,6.0,6.0,31,0.00,,,0.00,19,Wunderground v.1.15,2013-10-25 22:50:00,
2013-10-25 17:00:00,50.8,22.0,30.09,WNW,294,6.0,13.0,32,0.00,,,0.00,18,Wunderground v.1.15,2013-10-25 23:00:00,
2013-10-25 17:30:00,50.0,22.7,30.10,WNW,291,7.0,7.0,34,0.00,,,0.00,14,Wunderground v.1.15,2013-10-25 23:30:00,
2013-10-25 17:40:00,49.3,22.8,30.10,West,272,6.0,8.0,35,0.00,,,0.00,12,Wunderground v.1.15,2013-10-25 23:40:00,
2013-10-25 18:00:00,47.7,23.3,30.11,WNW,289,7.0,7.0,38,0.00,,,0.00,7,Wunderground v.1.15,2013-10-26 00:00:00,
2013-10-25 18:10:00,48.0,22.3,30.11,West,278,8.0,8.0,36,0.00,,,0.00,0,Wunderground v.1.15,2013-10-26 00:10:00,
2013-10-25 18:21:00,47.5,22.5,30.11,WNW,288,8.0,8.0,37,0.00,,,0.00,0,Wunderground v.1.15,2013-10-26 00:21:00,
2013-10-25 18:40:00,46.8,23.1,30.12,WNW,302,7.0,7.0,39,0.00,,,0.00,0,Wunderground v.1.15,2013-10-26 00:40:00,
2013-10-25 18:50:00,46.5,23.4,30.12,NW,321,7.0,7.0,40,0.00,,,0.00,0,Wunderground v.1.15,2013-10-26 00:50:00,
2013-10-25 19:10:00,46.5,22.8,30.14,NW,317,7.0,8.0,39,0.00,,,0.00,0,Wunderground v.1.15,2013-10-26 01:10:00,
2013-10-25 19:40:00,45.7,22.7,30.15,NW,308,4.0,5.0,40,0.00,,,0.00,0,Wunderground v.1.15,2013-10-26 01:40:00,
2013-10-25 19:50:00,45.2,22.3,30.15,NNW,331,6.0,6.0,40,0.00,,,0.00,0,Wunderground v.1.15,2013-10-26 01:50:00,
2013-10-25 20:20:00,43.4,21.8,30.16,WNW,282,0.0,0.0,42,0.00,,,0.00,0,Wunderground v.1.15,2013-10-26 02:20:00,
2013-10-25 20:30:00,42.2,21.8,30.16,ESE,112,1.0,1.0,44,0.00,,,0.00,0,Wunderground v.1.15,2013-10-26 02:30:00,
2013-10-25 20:50:00,40.3,22.6,30.16,NNW,344,0.0,0.0,49,0.00,,,0.00,0,Wunderground v.1.15,2013-10-26 02:50:00,
2013-10-25 21:00:00,39.4,22.3,30.16,NNW,344,0.0,0.0,50,0.00,,,0.00,0,Wunderground v.1.15,2013-10-26 03:00:00,
2013-10-25 21:20:00,36.8,22.1,30.16,WSW,250,0.0,0.0,55,0.00,,,0.00,0,Wunderground v.1.15,2013-10-26 03:20:00,
2013-10-25 21:30:00,36.2,22.0,30.17,WSW,251,0.0,0.0,56,0.00,,,0.00,0,Wunderground v.1.15,2013-10-26 03:30:00,
2013-10-25 21:40:00,35.9,21.7,30.17,NW,325,2.0,2.0,56,0.00,,,0.00,0,Wunderground v.1.15,2013-10-26 03:40:00,
2013-10-25 22:00:00,36.0,23.0,30.17,West,269,2.0,2.0,59,0.00,,,0.00,0,Wunderground v.1.15,2013-10-26 04:00:00,
2013-10-25 22:10:00,35.1,22.6,30.18,WSW,244,1.0,1.0,60,0.00,,,0.00,0,Wunderground v.1.15,2013-10-26 04:10:00,
2013-10-25 22:30:00,35.3,24.7,30.18,WSW,246,0.0,0.0,65,0.00,,,0.00,0,Wunderground v.1.15,2013-10-26 04:30:00,
2013-10-25 22:40:00,35.2,25.0,30.18,West,271,0.0,1.0,66,0.00,,,0.00,0,Wunderground v.1.15,2013-10-26 04:40:00,
2013-10-25 22:50:00,35.3,25.1,30.18,NW,305,2.0,2.0,66,0.00,,,0.00,0,Wunderground v.1.15,2013-10-26 04:50:00,
2013-10-25 23:10:00,35.4,24.8,30.18,WNW,302,2.0,2.0,65,0.00,,,0.00,0,Wunderground v.1.15,2013-10-26 05:10:00,
2013-10-25 23:20:00,34.7,24.9,30.18,WNW,302,0.0,0.0,67,0.00,,,0.00,0,Wunderground v.1.15,2013-10-26 05:20:00,
2013-10-25 23:40:00,33.5,24.8,30.18,WNW,302,0.0,0.0,70,0.00,,,0.00,0,Wunderground v.1.15,2013-10-26 05:40:00,